sensor_id;sensor_type;location;lat;lon;timestamp;temperature;humidity
1728;DHT22;861;48.808;9.006;2022-10-22T00:21:43;15.00;99.90
1728;DHT22;861;48.808;9.006;2022-10-22T00:24:09;14.50;99.90
1728;DHT22;861;48.808;9.006;2022-10-22T00:35:23;14.80;99.90
1728;DHT22;861;48.808;9.006;2022-10-22T00:37:49;14.40;99.90
1728;DHT22;861;48.808;9.006;2022-10-22T00:40:16;15.20;99.90
1728;DHT22;861;48.808;9.006;2022-10-22T00:42:42;14.40;99.90
1728;DHT22;861;48.808;9.006;2022-10-22T00:48:04;13.70;99.90
1728;DHT22;861;48.808;9.006;2022-10-22T00:51:00;14.10;99.90
1728;DHT22;861;48.808;9.006;2022-10-22T01:03:59;14.10;99.90
1728;DHT22;861;48.808;9.006;2022-10-22T01:18:46;13.60;99.90
1728;DHT22;861;48.808;9.006;2022-10-22T01:35:44;13.90;99.90
1728;DHT22;861;48.808;9.006;2022-10-22T01:38:18;14.10;99.90
1728;DHT22;861;48.808;9.006;2022-10-22T02:22:47;14.10;99.90
1728;DHT22;861;48.808;9.006;2022-10-22T02:41:22;12.50;99.90
1728;DHT22;861;48.808;9.006;2022-10-22T02:49:10;13.80;99.90
1728;DHT22;861;48.808;9.006;2022-10-22T02:58:57;14.90;99.90
1728;DHT22;861;48.808;9.006;2022-10-22T03:01:23;15.80;99.90
1728;DHT22;861;48.808;9.006;2022-10-22T03:11:10;14.10;99.90
1728;DHT22;861;48.808;9.006;2022-10-22T03:13:37;14.20;99.90
1728;DHT22;861;48.808;9.006;2022-10-22T03:16:03;13.10;99.90
1728;DHT22;861;48.808;9.006;2022-10-22T03:18:30;16.80;99.90
1728;DHT22;861;48.808;9.006;2022-10-22T03:31:51;14.70;99.90
1728;DHT22;861;48.808;9.006;2022-10-22T03:34:20;14.00;99.90
1728;DHT22;861;48.808;9.006;2022-10-22T03:49:32;13.80;99.90
1728;DHT22;861;48.808;9.006;2022-10-22T03:54:39;13.20;99.90
1728;DHT22;861;48.808;9.006;2022-10-22T03:57:08;13.40;99.90
1728;DHT22;861;48.808;9.006;2022-10-22T04:18:48;14.30;99.90
1728;DHT22;861;48.808;9.006;2022-10-22T04:21:18;13.00;99.90
1728;DHT22;861;48.808;9.006;2022-10-22T04:47:18;12.50;99.90
1728;DHT22;861;48.808;9.006;2022-10-22T04:52:12;13.50;99.90
1728;DHT22;861;48.808;9.006;2022-10-22T04:57:07;14.30;99.90
1728;DHT22;861;48.808;9.006;2022-10-22T05:04:27;13.70;99.90
1728;DHT22;861;48.808;9.006;2022-10-22T05:09:20;15.50;99.90
1728;DHT22;861;48.808;9.006;2022-10-22T05:16:51;13.80;99.90
1728;DHT22;861;48.808;9.006;2022-10-22T05:26:59;11.70;99.90
1728;DHT22;861;48.808;9.006;2022-10-22T05:29:26;13.40;99.90
1728;DHT22;861;48.808;9.006;2022-10-22T05:39:15;15.20;99.90
1728;DHT22;861;48.808;9.006;2022-10-22T05:44:11;14.00;99.90
1728;DHT22;861;48.808;9.006;2022-10-22T05:49:06;14.20;99.90
1728;DHT22;861;48.808;9.006;2022-10-22T05:56:13;13.90;99.90
1728;DHT22;861;48.808;9.006;2022-10-22T06:17:02;13.90;99.90
1728;DHT22;861;48.808;9.006;2022-10-22T06:24:22;14.70;99.90
1728;DHT22;861;48.808;9.006;2022-10-22T06:26:50;14.20;99.90
1728;DHT22;861;48.808;9.006;2022-10-22T06:31:44;14.40;99.90
1728;DHT22;861;48.808;9.006;2022-10-22T06:36:42;14.30;99.90
1728;DHT22;861;48.808;9.006;2022-10-22T06:41:42;14.40;99.90
1728;DHT22;861;48.808;9.006;2022-10-22T06:49:19;14.20;99.90
1728;DHT22;861;48.808;9.006;2022-10-22T06:53:22;14.10;99.90
1728;DHT22;861;48.808;9.006;2022-10-22T07:00:41;15.50;99.90
1728;DHT22;861;48.808;9.006;2022-10-22T07:03:11;17.00;99.90
1728;DHT22;861;48.808;9.006;2022-10-22T07:05:40;14.90;99.90
1728;DHT22;861;48.808;9.006;2022-10-22T07:08:07;14.80;99.90
1728;DHT22;861;48.808;9.006;2022-10-22T07:13:00;14.30;99.90
1728;DHT22;861;48.808;9.006;2022-10-22T07:15:26;14.50;99.90
1728;DHT22;861;48.808;9.006;2022-10-22T07:17:52;14.80;99.90
1728;DHT22;861;48.808;9.006;2022-10-22T07:20:18;14.80;99.90
1728;DHT22;861;48.808;9.006;2022-10-22T07:25:12;13.90;99.90
1728;DHT22;861;48.808;9.006;2022-10-22T07:27:39;14.60;99.90
1728;DHT22;861;48.808;9.006;2022-10-22T07:30:05;14.80;99.90
1728;DHT22;861;48.808;9.006;2022-10-22T07:32:33;15.90;99.90
1728;DHT22;861;48.808;9.006;2022-10-22T07:35:00;14.90;99.90
1728;DHT22;861;48.808;9.006;2022-10-22T07:39:52;15.40;99.90
1728;DHT22;861;48.808;9.006;2022-10-22T07:42:18;14.90;99.90
1728;DHT22;861;48.808;9.006;2022-10-22T07:44:44;15.90;99.90
1728;DHT22;861;48.808;9.006;2022-10-22T07:52:05;15.70;99.90
1728;DHT22;861;48.808;9.006;2022-10-22T07:54:32;14.30;99.90
1728;DHT22;861;48.808;9.006;2022-10-22T08:04:18;14.60;99.90
1728;DHT22;861;48.808;9.006;2022-10-22T08:09:11;15.60;99.90
1728;DHT22;861;48.808;9.006;2022-10-22T08:11:37;15.70;99.90
1728;DHT22;861;48.808;9.006;2022-10-22T08:14:03;16.70;99.90
1728;DHT22;861;48.808;9.006;2022-10-22T08:18:56;15.80;99.90
1728;DHT22;861;48.808;9.006;2022-10-22T13:39:02;25.10;99.90
1728;DHT22;861;48.808;9.006;2022-10-22T13:41:36;24.80;99.90
1728;DHT22;861;48.808;9.006;2022-10-22T13:44:03;24.50;99.90
1728;DHT22;861;48.808;9.006;2022-10-22T13:46:30;24.50;99.90
1728;DHT22;861;48.808;9.006;2022-10-22T13:48:58;24.20;99.90
1728;DHT22;861;48.808;9.006;2022-10-22T13:51:34;24.20;99.90
1728;DHT22;861;48.808;9.006;2022-10-22T13:54:08;24.00;99.90
1728;DHT22;861;48.808;9.006;2022-10-22T13:56:41;24.10;99.90
1728;DHT22;861;48.808;9.006;2022-10-22T13:59:09;24.40;99.90
1728;DHT22;861;48.808;9.006;2022-10-22T14:01:37;24.50;99.90
1728;DHT22;861;48.808;9.006;2022-10-22T14:04:07;24.40;99.90
1728;DHT22;861;48.808;9.006;2022-10-22T14:06:38;24.40;99.90
1728;DHT22;861;48.808;9.006;2022-10-22T14:09:12;24.30;99.90
1728;DHT22;861;48.808;9.006;2022-10-22T14:11:40;24.30;99.90
1728;DHT22;861;48.808;9.006;2022-10-22T14:14:07;24.10;99.90
1728;DHT22;861;48.808;9.006;2022-10-22T14:16:36;24.30;99.90
1728;DHT22;861;48.808;9.006;2022-10-22T14:19:06;24.30;99.90
1728;DHT22;861;48.808;9.006;2022-10-22T14:21:40;24.30;99.90
1728;DHT22;861;48.808;9.006;2022-10-22T14:24:08;23.80;99.90
1728;DHT22;861;48.808;9.006;2022-10-22T14:26:35;23.60;99.90
1728;DHT22;861;48.808;9.006;2022-10-22T14:29:02;23.50;99.90
1728;DHT22;861;48.808;9.006;2022-10-22T14:31:29;23.50;99.90
1728;DHT22;861;48.808;9.006;2022-10-22T14:33:56;23.60;99.90
1728;DHT22;861;48.808;9.006;2022-10-22T14:36:22;23.50;99.90
1728;DHT22;861;48.808;9.006;2022-10-22T14:38:49;23.60;99.90
1728;DHT22;861;48.808;9.006;2022-10-22T14:41:21;24.20;99.90
1728;DHT22;861;48.808;9.006;2022-10-22T14:43:51;23.80;99.90
1728;DHT22;861;48.808;9.006;2022-10-22T14:46:19;23.20;99.90
1728;DHT22;861;48.808;9.006;2022-10-22T14:48:46;23.70;99.90
1728;DHT22;861;48.808;9.006;2022-10-22T14:51:16;23.60;99.90
1728;DHT22;861;48.808;9.006;2022-10-22T14:53:46;24.00;99.90
1728;DHT22;861;48.808;9.006;2022-10-22T14:56:17;23.90;99.90
1728;DHT22;861;48.808;9.006;2022-10-22T14:58:46;23.90;99.90
1728;DHT22;861;48.808;9.006;2022-10-22T15:01:13;23.90;99.90
1728;DHT22;861;48.808;9.006;2022-10-22T15:03:39;23.70;99.90
1728;DHT22;861;48.808;9.006;2022-10-22T15:06:06;23.60;99.90
1728;DHT22;861;48.808;9.006;2022-10-22T15:08:33;23.40;99.90
1728;DHT22;861;48.808;9.006;2022-10-22T15:13:37;23.40;99.90
1728;DHT22;861;48.808;9.006;2022-10-22T15:18:35;23.00;99.90
1728;DHT22;861;48.808;9.006;2022-10-22T15:21:07;22.90;99.90
1728;DHT22;861;48.808;9.006;2022-10-22T15:23:40;22.50;99.90
1728;DHT22;861;48.808;9.006;2022-10-22T15:26:12;22.70;99.90
1728;DHT22;861;48.808;9.006;2022-10-22T15:28:40;22.60;99.90
1728;DHT22;861;48.808;9.006;2022-10-22T15:31:12;22.50;99.90
1728;DHT22;861;48.808;9.006;2022-10-22T15:33:42;22.40;99.90
1728;DHT22;861;48.808;9.006;2022-10-22T15:36:14;22.20;99.90
1728;DHT22;861;48.808;9.006;2022-10-22T15:41:11;22.30;99.90
1728;DHT22;861;48.808;9.006;2022-10-22T15:43:38;22.10;99.90
1728;DHT22;861;48.808;9.006;2022-10-22T15:46:13;22.10;99.90
1728;DHT22;861;48.808;9.006;2022-10-22T15:48:43;21.90;99.90
1728;DHT22;861;48.808;9.006;2022-10-22T15:51:14;21.80;99.90
1728;DHT22;861;48.808;9.006;2022-10-22T15:53:43;21.70;99.90
1728;DHT22;861;48.808;9.006;2022-10-22T15:56:22;21.60;99.90
1728;DHT22;861;48.808;9.006;2022-10-22T15:58:57;21.50;99.90
1728;DHT22;861;48.808;9.006;2022-10-22T16:01:30;21.40;99.90
1728;DHT22;861;48.808;9.006;2022-10-22T16:03:59;21.20;99.90
1728;DHT22;861;48.808;9.006;2022-10-22T16:06:49;20.70;99.90
1728;DHT22;861;48.808;9.006;2022-10-22T16:09:22;20.90;99.90
1728;DHT22;861;48.808;9.006;2022-10-22T16:11:53;20.90;99.90
1728;DHT22;861;48.808;9.006;2022-10-22T16:14:21;20.80;99.90
1728;DHT22;861;48.808;9.006;2022-10-22T16:16:52;20.60;99.90
1728;DHT22;861;48.808;9.006;2022-10-22T16:19:23;21.30;99.90
1728;DHT22;861;48.808;9.006;2022-10-22T16:21:54;20.50;99.90
1728;DHT22;861;48.808;9.006;2022-10-22T16:24:22;20.50;99.90
1728;DHT22;861;48.808;9.006;2022-10-22T16:26:48;20.40;99.90
1728;DHT22;861;48.808;9.006;2022-10-22T16:29:15;20.40;99.90
1728;DHT22;861;48.808;9.006;2022-10-22T16:31:42;20.40;99.90
1728;DHT22;861;48.808;9.006;2022-10-22T16:34:11;20.30;99.90
1728;DHT22;861;48.808;9.006;2022-10-22T16:39:06;20.10;99.90
1728;DHT22;861;48.808;9.006;2022-10-22T16:41:32;19.90;99.90
1728;DHT22;861;48.808;9.006;2022-10-22T16:44:06;20.10;99.90
1728;DHT22;861;48.808;9.006;2022-10-22T16:46:35;19.70;99.90
1728;DHT22;861;48.808;9.006;2022-10-22T16:49:04;19.70;99.90
1728;DHT22;861;48.808;9.006;2022-10-22T16:51:32;19.40;99.90
1728;DHT22;861;48.808;9.006;2022-10-22T16:53:59;20.40;99.90
1728;DHT22;861;48.808;9.006;2022-10-22T16:56:26;19.90;99.90
1728;DHT22;861;48.808;9.006;2022-10-22T16:58:55;18.50;99.90
1728;DHT22;861;48.808;9.006;2022-10-22T17:01:25;19.40;99.90
1728;DHT22;861;48.808;9.006;2022-10-22T17:06:26;18.90;99.90
1728;DHT22;861;48.808;9.006;2022-10-22T17:08:52;19.10;99.90
1728;DHT22;861;48.808;9.006;2022-10-22T17:11:22;19.20;99.90
1728;DHT22;861;48.808;9.006;2022-10-22T17:13:52;18.90;99.90
1728;DHT22;861;48.808;9.006;2022-10-22T17:16:22;18.80;99.90
1728;DHT22;861;48.808;9.006;2022-10-22T17:21:21;18.70;99.90
1728;DHT22;861;48.808;9.006;2022-10-22T17:23:48;18.40;99.90
1728;DHT22;861;48.808;9.006;2022-10-22T17:26:22;18.30;99.90
1728;DHT22;861;48.808;9.006;2022-10-22T17:28:51;18.30;99.90
1728;DHT22;861;48.808;9.006;2022-10-22T17:31:25;18.40;99.90
1728;DHT22;861;48.808;9.006;2022-10-22T17:36:43;17.90;99.90
1728;DHT22;861;48.808;9.006;2022-10-22T17:39:15;17.70;99.90
1728;DHT22;861;48.808;9.006;2022-10-22T17:41:43;17.30;99.90
1728;DHT22;861;48.808;9.006;2022-10-22T17:44:11;17.50;99.90
1728;DHT22;861;48.808;9.006;2022-10-22T17:46:40;17.40;99.90
1728;DHT22;861;48.808;9.006;2022-10-22T17:49:18;18.00;99.90
1728;DHT22;861;48.808;9.006;2022-10-22T17:51:46;17.30;99.90
1728;DHT22;861;48.808;9.006;2022-10-22T17:56:39;17.40;99.90
1728;DHT22;861;48.808;9.006;2022-10-22T17:59:08;17.30;99.90
1728;DHT22;861;48.808;9.006;2022-10-22T18:01:39;17.60;99.90
1728;DHT22;861;48.808;9.006;2022-10-22T18:06:45;17.30;99.90
1728;DHT22;861;48.808;9.006;2022-10-22T18:11:44;17.40;99.90
1728;DHT22;861;48.808;9.006;2022-10-22T18:16:39;16.80;99.90
1728;DHT22;861;48.808;9.006;2022-10-22T18:19:06;17.80;99.90
1728;DHT22;861;48.808;9.006;2022-10-22T18:21:32;16.80;99.90
1728;DHT22;861;48.808;9.006;2022-10-22T18:23:59;16.80;99.90
1728;DHT22;861;48.808;9.006;2022-10-22T18:28:55;16.30;99.90
1728;DHT22;861;48.808;9.006;2022-10-22T18:31:25;16.30;99.90
1728;DHT22;861;48.808;9.006;2022-10-22T18:38:56;17.40;99.90
1728;DHT22;861;48.808;9.006;2022-10-22T18:41:29;16.50;99.90
1728;DHT22;861;48.808;9.006;2022-10-22T18:44:01;16.60;99.90
1728;DHT22;861;48.808;9.006;2022-10-22T18:46:32;16.60;99.90
1728;DHT22;861;48.808;9.006;2022-10-22T18:49:03;14.90;99.90
1728;DHT22;861;48.808;9.006;2022-10-22T18:51:33;16.50;99.90
1728;DHT22;861;48.808;9.006;2022-10-22T18:54:02;16.50;99.90
1728;DHT22;861;48.808;9.006;2022-10-22T18:56:29;15.90;99.90
1728;DHT22;861;48.808;9.006;2022-10-22T18:58:56;16.40;99.90
1728;DHT22;861;48.808;9.006;2022-10-22T19:01:25;16.30;99.90
1728;DHT22;861;48.808;9.006;2022-10-22T19:06:02;16.70;99.90
1728;DHT22;861;48.808;9.006;2022-10-22T19:08:30;16.60;99.90
1728;DHT22;861;48.808;9.006;2022-10-22T19:10:59;16.40;99.90
1728;DHT22;861;48.808;9.006;2022-10-22T19:18:27;15.90;99.90
1728;DHT22;861;48.808;9.006;2022-10-22T19:25:30;16.00;99.90
1728;DHT22;861;48.808;9.006;2022-10-22T19:27:56;16.20;99.90
1728;DHT22;861;48.808;9.006;2022-10-22T19:30:23;16.20;99.90
1728;DHT22;861;48.808;9.006;2022-10-22T19:32:49;15.80;99.90
1728;DHT22;861;48.808;9.006;2022-10-22T19:37:43;15.10;99.90
1728;DHT22;861;48.808;9.006;2022-10-22T19:42:37;15.80;99.90
1728;DHT22;861;48.808;9.006;2022-10-22T19:45:05;15.70;99.90
1728;DHT22;861;48.808;9.006;2022-10-22T19:47:32;16.20;99.90
1728;DHT22;861;48.808;9.006;2022-10-22T19:49:59;15.60;99.90
1728;DHT22;861;48.808;9.006;2022-10-22T19:54:51;15.50;99.90
1728;DHT22;861;48.808;9.006;2022-10-22T19:57:18;15.60;99.90
1728;DHT22;861;48.808;9.006;2022-10-22T19:59:44;15.60;99.90
1728;DHT22;861;48.808;9.006;2022-10-22T20:02:16;15.50;99.90
1728;DHT22;861;48.808;9.006;2022-10-22T20:04:44;15.80;99.90
1728;DHT22;861;48.808;9.006;2022-10-22T20:09:37;15.60;99.90
1728;DHT22;861;48.808;9.006;2022-10-22T20:12:03;15.60;99.90
1728;DHT22;861;48.808;9.006;2022-10-22T20:14:30;15.80;99.90
1728;DHT22;861;48.808;9.006;2022-10-22T20:16:57;15.30;99.90
1728;DHT22;861;48.808;9.006;2022-10-22T20:19:23;16.40;99.90
1728;DHT22;861;48.808;9.006;2022-10-22T20:21:53;15.50;99.90
1728;DHT22;861;48.808;9.006;2022-10-22T20:26:46;15.40;99.90
1728;DHT22;861;48.808;9.006;2022-10-22T20:29:14;14.80;99.90
1728;DHT22;861;48.808;9.006;2022-10-22T20:31:44;15.40;99.90
1728;DHT22;861;48.808;9.006;2022-10-22T20:34:12;19.50;99.90
1728;DHT22;861;48.808;9.006;2022-10-22T20:36:38;15.20;99.90
1728;DHT22;861;48.808;9.006;2022-10-22T20:50:57;14.70;99.90
1728;DHT22;861;48.808;9.006;2022-10-22T20:53:27;13.80;99.90
1728;DHT22;861;48.808;9.006;2022-10-22T20:55:58;14.50;99.90
1728;DHT22;861;48.808;9.006;2022-10-22T20:58:25;15.10;99.90
1728;DHT22;861;48.808;9.006;2022-10-22T21:00:53;15.10;99.90
1728;DHT22;861;48.808;9.006;2022-10-22T21:05:47;15.30;99.90
1728;DHT22;861;48.808;9.006;2022-10-22T21:08:14;15.20;99.90
1728;DHT22;861;48.808;9.006;2022-10-22T21:10:45;14.40;99.90
1728;DHT22;861;48.808;9.006;2022-10-22T21:15:44;15.20;99.90
1728;DHT22;861;48.808;9.006;2022-10-22T21:18:10;15.20;99.90
1728;DHT22;861;48.808;9.006;2022-10-22T21:23:07;15.10;99.90
1728;DHT22;861;48.808;9.006;2022-10-22T21:28:01;15.30;99.90
1728;DHT22;861;48.808;9.006;2022-10-22T21:30:27;15.40;99.90
1728;DHT22;861;48.808;9.006;2022-10-22T21:32:53;15.10;99.90
1728;DHT22;861;48.808;9.006;2022-10-22T21:37:49;15.60;99.90
1728;DHT22;861;48.808;9.006;2022-10-22T21:42:48;14.80;99.90
1728;DHT22;861;48.808;9.006;2022-10-22T21:45:14;14.70;99.90
1728;DHT22;861;48.808;9.006;2022-10-22T21:47:41;14.10;99.90
1728;DHT22;861;48.808;9.006;2022-10-22T21:52:34;15.10;99.90
1728;DHT22;861;48.808;9.006;2022-10-22T21:55:01;15.50;99.90
1728;DHT22;861;48.808;9.006;2022-10-22T21:57:28;14.40;99.90
1728;DHT22;861;48.808;9.006;2022-10-22T21:59:54;14.80;99.90
1728;DHT22;861;48.808;9.006;2022-10-22T22:02:21;16.20;99.90
1728;DHT22;861;48.808;9.006;2022-10-22T22:04:47;14.80;99.90
1728;DHT22;861;48.808;9.006;2022-10-22T22:07:15;14.20;99.90
1728;DHT22;861;48.808;9.006;2022-10-22T22:09:41;15.00;99.90
1728;DHT22;861;48.808;9.006;2022-10-22T22:19:28;13.90;99.90
1728;DHT22;861;48.808;9.006;2022-10-22T22:24:21;15.00;99.90
1728;DHT22;861;48.808;9.006;2022-10-22T22:26:48;15.30;99.90
1728;DHT22;861;48.808;9.006;2022-10-22T22:29:14;15.40;99.90
1728;DHT22;861;48.808;9.006;2022-10-22T22:31:42;14.90;99.90
1728;DHT22;861;48.808;9.006;2022-10-22T22:34:15;14.80;99.90
1728;DHT22;861;48.808;9.006;2022-10-22T22:41:48;14.40;99.90
1728;DHT22;861;48.808;9.006;2022-10-22T22:44:16;15.00;99.90
1728;DHT22;861;48.808;9.006;2022-10-22T22:46:43;15.70;99.90
1728;DHT22;861;48.808;9.006;2022-10-22T22:49:12;15.20;99.90
1728;DHT22;861;48.808;9.006;2022-10-22T22:54:09;15.10;99.90
1728;DHT22;861;48.808;9.006;2022-10-22T22:56:37;15.50;99.90
1728;DHT22;861;48.808;9.006;2022-10-22T22:59:05;15.80;99.90
1728;DHT22;861;48.808;9.006;2022-10-22T23:01:38;15.10;99.90
1728;DHT22;861;48.808;9.006;2022-10-22T23:11:43;15.10;99.90
1728;DHT22;861;48.808;9.006;2022-10-22T23:19:20;15.20;99.90
1728;DHT22;861;48.808;9.006;2022-10-22T23:21:51;16.10;99.90
1728;DHT22;861;48.808;9.006;2022-10-22T23:26:55;15.60;99.90
1728;DHT22;861;48.808;9.006;2022-10-22T23:29:31;15.10;99.90
1728;DHT22;861;48.808;9.006;2022-10-22T23:39:32;14.10;99.90
1728;DHT22;861;48.808;9.006;2022-10-22T23:41:58;14.70;99.90
1728;DHT22;861;48.808;9.006;2022-10-22T23:46:51;14.90;99.90
1728;DHT22;861;48.808;9.006;2022-10-22T23:49:18;15.00;99.90
